createdAt,value
2018-01-18T00:01:37.490Z,68.80
2018-01-18T00:04:05.844Z,69.30
2018-01-18T00:06:34.165Z,69.50
2018-01-18T00:09:02.482Z,69.60
2018-01-18T00:11:31.662Z,70.00
2018-01-18T00:14:00.774Z,69.60
2018-01-18T00:16:29.140Z,69.50
2018-01-18T00:18:57.476Z,69.80
2018-01-18T00:21:25.829Z,69.80
2018-01-18T00:23:54.124Z,69.60
2018-01-18T00:26:22.409Z,68.80
2018-01-18T00:28:50.776Z,68.90
2018-01-18T00:31:19.078Z,69.00
2018-01-18T00:33:47.402Z,68.80
2018-01-18T00:36:15.680Z,68.90
2018-01-18T00:38:43.973Z,69.20
2018-01-18T00:41:12.371Z,69.00
2018-01-18T00:43:40.675Z,68.70
2018-01-18T00:46:09.922Z,68.60
2018-01-18T00:48:39.016Z,68.70
2018-01-18T00:51:07.308Z,68.90
2018-01-18T00:53:35.644Z,68.50
2018-01-18T00:56:04.691Z,68.50
2018-01-18T00:58:33.012Z,68.50
2018-01-18T01:01:01.332Z,68.90
2018-01-18T01:03:29.743Z,69.10
2018-01-18T01:05:58.760Z,68.90
2018-01-18T01:08:27.060Z,69.20
2018-01-18T01:10:55.358Z,69.40
2018-01-18T01:13:23.667Z,69.70
2018-01-18T01:15:51.955Z,69.80
2018-01-18T01:18:21.191Z,70.60
2018-01-18T01:20:49.488Z,70.50
2018-01-18T01:23:17.821Z,70.10
2018-01-18T01:25:46.118Z,70.30
2018-01-18T01:28:14.419Z,70.30
2018-01-18T01:30:43.492Z,71.10
2018-01-18T01:33:12.659Z,71.20
2018-01-18T01:35:41.765Z,71.50
2018-01-18T01:41:13.073Z,71.60
2018-01-18T01:43:41.380Z,71.90
2018-01-18T01:46:09.736Z,71.50
2018-01-18T01:48:39.663Z,71.70
2018-01-18T01:51:08.711Z,71.70
2018-01-18T01:53:37.121Z,71.30
2018-01-18T01:56:05.605Z,71.60
2018-01-18T01:58:33.880Z,71.90
2018-01-18T02:01:08.613Z,71.60
2018-01-18T02:03:36.919Z,71.80
2018-01-18T02:06:05.234Z,72.00
2018-01-18T02:08:33.560Z,72.40
2018-01-18T02:11:01.909Z,72.60
2018-01-18T02:13:30.207Z,72.50
2018-01-18T02:15:58.864Z,73.00
2018-01-18T02:18:27.333Z,73.00
2018-01-18T02:20:56.728Z,73.50
2018-01-18T02:23:25.082Z,73.80
2018-01-18T02:25:58.658Z,75.00
2018-01-18T02:28:29.497Z,75.80
2018-01-18T02:30:58.215Z,77.10
2018-01-18T02:33:26.807Z,78.90
2018-01-18T02:35:55.123Z,79.90
2018-01-18T02:38:23.528Z,82.00
2018-01-18T02:40:51.911Z,82.80
2018-01-18T02:43:20.423Z,83.50
2018-01-18T02:45:48.783Z,83.80
2018-01-18T02:48:17.080Z,85.40
2018-01-18T02:50:46.432Z,86.60
2018-01-18T02:53:14.728Z,88.20
2018-01-18T02:55:44.146Z,89.10
2018-01-18T02:58:12.428Z,88.70
2018-01-18T03:00:40.707Z,90.10
2018-01-18T03:03:09.024Z,90.70
2018-01-18T03:05:37.322Z,90.00
2018-01-18T03:08:05.643Z,90.20
2018-01-18T03:10:33.960Z,90.70
2018-01-18T03:13:02.259Z,91.40
2018-01-18T03:15:30.931Z,91.40
2018-01-18T03:17:59.283Z,91.30
2018-01-18T03:20:27.592Z,91.50
2018-01-18T03:22:55.919Z,90.90
2018-01-18T03:25:24.202Z,90.40
2018-01-18T03:27:52.493Z,89.70
2018-01-18T03:30:20.880Z,89.80
2018-01-18T03:32:49.196Z,89.00
2018-01-18T03:35:17.491Z,89.50
2018-01-18T03:37:45.897Z,89.60
2018-01-18T03:40:14.196Z,89.60
2018-01-18T03:42:42.508Z,89.60
2018-01-18T03:45:11.566Z,88.10
2018-01-18T03:47:39.892Z,88.20
2018-01-18T03:50:08.172Z,89.10
2018-01-18T03:52:36.464Z,88.80
2018-01-18T03:55:04.799Z,88.60
2018-01-18T03:57:33.889Z,88.10
2018-01-18T04:00:02.205Z,88.10
2018-01-18T04:02:30.491Z,88.30
2018-01-18T04:04:58.819Z,88.30
2018-01-18T04:07:27.100Z,89.50
2018-01-18T04:09:56.162Z,90.40
2018-01-18T04:12:25.241Z,90.90
2018-01-18T04:14:54.335Z,91.70
2018-01-18T04:17:22.724Z,91.80
2018-01-18T04:19:51.008Z,92.30
2018-01-18T04:22:20.081Z,92.40
2018-01-18T04:24:48.360Z,93.30
2018-01-18T04:27:16.671Z,93.70
2018-01-18T04:29:45.687Z,95.30
2018-01-18T04:32:15.778Z,95.20
2018-01-18T04:34:44.057Z,95.30
2018-01-18T04:37:13.126Z,98.10
2018-01-18T04:39:42.167Z,98.60
2018-01-18T04:42:10.486Z,98.70
2018-01-18T04:44:38.777Z,99.90
2018-01-18T04:47:07.056Z,99.90
2018-01-18T04:49:35.386Z,99.90
2018-01-18T04:52:03.667Z,99.90
2018-01-18T04:54:31.962Z,99.90
2018-01-18T04:57:00.289Z,99.90
2018-01-18T04:59:28.609Z,99.90
2018-01-18T05:01:56.943Z,99.90
2018-01-18T05:04:26.120Z,99.90
2018-01-18T05:06:55.227Z,99.90
2018-01-18T05:09:23.539Z,99.90
2018-01-18T05:11:51.837Z,99.90
2018-01-18T05:14:20.959Z,99.90
2018-01-18T05:16:49.247Z,99.90
2018-01-18T05:19:17.572Z,99.90
2018-01-18T05:21:45.861Z,99.90
2018-01-18T05:24:14.180Z,99.90
2018-01-18T05:26:42.500Z,99.90
2018-01-18T05:29:10.825Z,99.90
2018-01-18T05:31:39.884Z,99.90
2018-01-18T05:34:08.953Z,99.90
2018-01-18T05:36:38.116Z,99.90
2018-01-18T05:39:06.400Z,99.90
2018-01-18T05:41:34.706Z,99.90
2018-01-18T05:44:03.037Z,99.90
2018-01-18T05:46:31.365Z,99.90
2018-01-18T05:48:59.667Z,99.90
2018-01-18T05:51:28.444Z,99.90
2018-01-18T05:53:56.736Z,99.90
2018-01-18T05:56:25.048Z,99.90
2018-01-18T05:58:53.367Z,99.90
2018-01-18T06:01:21.728Z,99.90
2018-01-18T06:03:50.031Z,99.90
2018-01-18T06:06:18.324Z,99.90
2018-01-18T06:08:46.640Z,99.90
2018-01-18T06:11:15.017Z,99.90
2018-01-18T06:13:43.306Z,99.90
2018-01-18T06:16:11.602Z,99.90
2018-01-18T06:18:40.816Z,99.90
2018-01-18T06:21:09.247Z,99.90
2018-01-18T06:23:37.617Z,99.90
2018-01-18T06:26:05.907Z,99.90
2018-01-18T06:28:34.228Z,99.90
2018-01-18T06:31:02.591Z,99.90
2018-01-18T06:33:30.938Z,99.90
2018-01-18T06:35:59.303Z,99.90
2018-01-18T06:38:28.603Z,99.90
2018-01-18T06:40:57.177Z,99.90
2018-01-18T06:43:26.548Z,99.90
2018-01-18T06:45:54.872Z,99.90
2018-01-18T06:48:23.186Z,99.90
2018-01-18T06:50:53.167Z,99.90
2018-01-18T06:53:21.496Z,99.90
2018-01-18T06:55:49.827Z,99.90
2018-01-18T06:58:19.080Z,99.90
2018-01-18T07:00:47.497Z,99.90
2018-01-18T07:03:15.820Z,99.90
2018-01-18T07:05:45.506Z,99.90
2018-01-18T07:08:15.828Z,99.90
2018-01-18T07:10:54.472Z,99.90
2018-01-18T07:13:22.847Z,99.90
2018-01-18T07:15:51.571Z,99.90
2018-01-18T07:18:19.993Z,99.90
2018-01-18T07:20:48.302Z,99.90
2018-01-18T07:23:16.623Z,99.90
2018-01-18T07:25:44.944Z,99.90
2018-01-18T07:28:19.197Z,99.90
2018-01-18T07:30:47.546Z,99.90
2018-01-18T07:33:15.858Z,99.90
2018-01-18T07:38:44.902Z,99.90
2018-01-18T07:41:13.192Z,99.90
2018-01-18T07:43:48.441Z,98.90
2018-01-18T07:46:16.870Z,99.00
2018-01-18T07:48:45.185Z,97.10
2018-01-18T07:51:13.515Z,97.40
2018-01-18T07:53:41.820Z,95.10
2018-01-18T07:56:15.870Z,97.40
2018-01-18T07:58:44.951Z,96.00
2018-01-18T08:01:14.282Z,96.40
2018-01-18T08:03:47.984Z,96.70
2018-01-18T08:06:32.285Z,95.90
2018-01-18T08:11:54.119Z,94.70
2018-01-18T08:14:22.428Z,94.50
2018-01-18T08:16:50.714Z,94.90
2018-01-18T08:19:19.053Z,95.60
2018-01-18T08:22:00.568Z,95.40
2018-01-18T08:24:29.562Z,95.70
2018-01-18T08:27:02.310Z,94.80
2018-01-18T08:29:30.690Z,93.70
2018-01-18T08:32:00.526Z,94.20
2018-01-18T08:34:31.823Z,92.90
2018-01-18T08:37:00.453Z,93.10
2018-01-18T08:39:30.136Z,93.50
2018-01-18T08:42:00.174Z,92.90
2018-01-18T08:47:18.157Z,95.80
2018-01-18T08:49:59.516Z,95.90
2018-01-18T08:52:28.354Z,96.30
2018-01-18T08:54:56.667Z,96.30
2018-01-18T08:57:25.002Z,96.70
2018-01-18T08:59:55.250Z,99.00
2018-01-18T09:02:23.554Z,99.90
2018-01-18T09:04:51.919Z,99.90
2018-01-18T09:07:45.993Z,99.90
2018-01-18T09:10:14.423Z,99.90
2018-01-18T09:12:42.767Z,99.90
2018-01-18T09:15:11.136Z,99.90
2018-01-18T09:17:39.443Z,99.90
2018-01-18T09:20:07.724Z,99.90
2018-01-18T09:28:36.337Z,99.90
2018-01-18T09:31:05.385Z,99.90
2018-01-18T09:33:33.668Z,99.90
2018-01-18T09:36:02.009Z,99.90
2018-01-18T09:38:31.080Z,99.50
2018-01-18T09:41:00.140Z,98.60
2018-01-18T09:43:29.215Z,97.10
2018-01-18T09:45:57.498Z,97.10
2018-01-18T09:48:25.869Z,96.20
2018-01-18T09:51:08.412Z,94.80
2018-01-18T09:53:37.657Z,89.30
2018-01-18T09:56:05.945Z,89.40
2018-01-18T09:58:34.304Z,89.90
2018-01-18T10:01:02.619Z,90.50
2018-01-18T10:03:30.953Z,89.00
2018-01-18T10:05:59.239Z,87.90
2018-01-18T10:08:27.564Z,87.50
2018-01-18T10:10:55.845Z,88.60
2018-01-18T10:13:24.189Z,88.80
2018-01-18T10:15:52.554Z,89.40
2018-01-18T10:18:21.651Z,88.00
2018-01-18T10:20:49.967Z,88.10
2018-01-18T10:23:18.317Z,87.40
2018-01-18T10:25:46.614Z,87.70
2018-01-18T10:28:14.941Z,87.00
2018-01-18T10:30:43.249Z,86.30
2018-01-18T10:33:11.597Z,85.60
2018-01-18T10:35:39.887Z,86.50
2018-01-18T10:38:08.976Z,84.00
2018-01-18T10:40:38.056Z,83.20
2018-01-18T10:43:06.377Z,83.20
2018-01-18T10:45:35.432Z,82.60
2018-01-18T10:48:03.748Z,82.60
2018-01-18T10:50:32.082Z,80.90
2018-01-18T10:53:00.414Z,80.00
2018-01-18T10:55:32.174Z,78.00
2018-01-18T10:58:00.465Z,76.70
2018-01-18T11:00:28.775Z,76.50
2018-01-18T11:02:57.056Z,75.30
2018-01-18T11:05:25.367Z,77.90
2018-01-18T11:07:53.686Z,81.40
2018-01-18T11:10:22.011Z,84.70
2018-01-18T11:12:50.348Z,88.80
2018-01-18T11:15:18.657Z,89.50
2018-01-18T11:17:46.951Z,89.20
2018-01-18T11:20:15.584Z,88.90
2018-01-18T11:22:43.924Z,83.20
2018-01-18T11:25:12.268Z,78.60
2018-01-18T11:27:40.588Z,71.90
2018-01-18T11:30:09.297Z,67.60
2018-01-18T11:32:38.506Z,63.70
2018-01-18T11:35:06.890Z,63.00
2018-01-18T11:37:35.197Z,59.70
2018-01-18T11:40:03.563Z,58.90
2018-01-18T11:42:32.087Z,54.30
2018-01-18T11:45:00.387Z,52.50
2018-01-18T11:47:28.714Z,50.70
2018-01-18T11:49:57.009Z,49.40
2018-01-18T11:52:25.323Z,47.50
2018-01-18T11:54:54.390Z,44.10
2018-01-18T11:57:25.167Z,44.30
2018-01-18T11:59:53.468Z,44.30
2018-01-18T12:02:22.550Z,41.90
2018-01-18T12:04:51.627Z,39.00
2018-01-18T12:07:19.960Z,39.10
2018-01-18T12:09:48.297Z,37.60
2018-01-18T12:12:16.639Z,36.40
2018-01-18T12:14:44.979Z,36.90
2018-01-18T12:17:13.296Z,37.00
2018-01-18T12:19:41.616Z,35.90
2018-01-18T12:22:09.928Z,36.50
2018-01-18T12:24:38.249Z,38.10
2018-01-18T12:27:06.564Z,38.30
2018-01-18T12:29:35.617Z,40.00
2018-01-18T12:32:03.939Z,40.00
2018-01-18T12:34:32.691Z,40.20
2018-01-18T12:37:01.123Z,42.70
2018-01-18T12:39:30.197Z,43.10
2018-01-18T12:42:00.046Z,42.60
2018-01-18T12:44:29.686Z,36.60
2018-01-18T12:46:57.979Z,36.60
2018-01-18T12:49:26.572Z,36.80
2018-01-18T12:51:55.657Z,38.10
2018-01-18T12:54:24.739Z,37.10
2018-01-18T12:56:54.020Z,36.10
2018-01-18T12:59:22.361Z,36.10
2018-01-18T13:01:50.734Z,34.40
2018-01-18T13:04:19.149Z,34.10
2018-01-18T13:06:47.437Z,33.80
2018-01-18T13:09:17.485Z,34.80
2018-01-18T13:11:45.823Z,34.80
2018-01-18T13:14:14.936Z,34.10
2018-01-18T13:16:43.287Z,34.00
2018-01-18T13:19:11.619Z,34.90
2018-01-18T13:21:39.929Z,37.10
2018-01-18T13:24:09.004Z,41.50
2018-01-18T13:26:38.061Z,43.00
2018-01-18T13:29:06.377Z,43.00
2018-01-18T13:31:34.684Z,45.00
2018-01-18T13:34:02.997Z,46.40
2018-01-18T13:36:31.280Z,47.00
2018-01-18T13:39:00.137Z,48.30
2018-01-18T13:41:29.429Z,48.30
2018-01-18T13:43:57.759Z,45.70
2018-01-18T13:46:26.069Z,45.30
2018-01-18T13:48:54.461Z,42.30
2018-01-18T13:51:22.752Z,41.60
2018-01-18T13:54:03.979Z,39.70
2018-01-18T13:56:47.411Z,38.90
2018-01-18T13:59:15.762Z,39.20
2018-01-18T14:01:44.110Z,39.20
2018-01-18T14:04:12.435Z,38.00
2018-01-18T14:06:41.484Z,38.20
2018-01-18T14:09:09.785Z,38.00
2018-01-18T14:11:38.839Z,39.10
2018-01-18T14:14:07.185Z,39.20
2018-01-18T14:16:36.408Z,39.60
2018-01-18T14:19:04.722Z,39.60
2018-01-18T14:21:33.787Z,40.80
2018-01-18T14:24:02.947Z,40.90
2018-01-18T14:26:31.237Z,40.90
2018-01-18T14:29:00.305Z,41.90
2018-01-18T14:31:28.619Z,41.70
2018-01-18T14:33:56.922Z,42.00
2018-01-18T14:36:25.259Z,41.80
2018-01-18T14:38:53.562Z,40.80
2018-01-18T14:41:21.869Z,42.30
2018-01-18T14:43:50.143Z,41.90
2018-01-18T14:46:18.444Z,41.90
2018-01-18T14:48:46.723Z,42.40
2018-01-18T14:51:15.048Z,43.20
2018-01-18T14:53:43.380Z,44.20
2018-01-18T14:56:11.707Z,42.70
2018-01-18T14:58:40.764Z,43.70
2018-01-18T15:01:09.088Z,43.70
2018-01-18T15:03:37.381Z,43.60
2018-01-18T15:06:06.476Z,44.40
2018-01-18T15:08:34.893Z,44.40
2018-01-18T15:11:03.947Z,44.20
2018-01-18T15:13:32.278Z,44.10
2018-01-18T15:16:00.625Z,44.50
2018-01-18T15:18:29.353Z,44.40
2018-01-18T15:20:59.180Z,45.00
2018-01-18T15:23:27.459Z,45.00
2018-01-18T15:25:55.812Z,45.50
2018-01-18T15:28:24.117Z,45.50
2018-01-18T15:30:53.196Z,46.30
2018-01-18T15:33:22.271Z,46.20
2018-01-18T15:35:51.331Z,46.10
2018-01-18T15:38:19.640Z,46.00
2018-01-18T15:40:47.992Z,46.10
2018-01-18T15:43:16.361Z,46.80
2018-01-18T15:45:44.736Z,46.80
2018-01-18T15:48:13.025Z,46.70
2018-01-18T15:50:41.308Z,46.10
2018-01-18T15:53:09.623Z,46.20
2018-01-18T15:55:37.900Z,47.30
2018-01-18T15:58:06.240Z,47.30
2018-01-18T16:00:35.391Z,47.40
2018-01-18T16:03:03.720Z,47.20
2018-01-18T16:05:32.073Z,46.30
2018-01-18T16:08:00.376Z,45.70
2018-01-18T16:10:28.710Z,45.60
2018-01-18T16:12:57.037Z,45.20
2018-01-18T16:15:25.365Z,45.00
2018-01-18T16:17:53.651Z,45.30
2018-01-18T16:20:23.330Z,45.50
2018-01-18T16:22:51.630Z,45.40
2018-01-18T16:25:19.943Z,45.30
2018-01-18T16:27:48.473Z,45.80
2018-01-18T16:30:17.057Z,46.20
2018-01-18T16:32:45.417Z,46.10
2018-01-18T16:35:14.486Z,46.20
2018-01-18T16:37:43.804Z,46.20
2018-01-18T16:40:12.246Z,45.90
2018-01-18T16:42:40.571Z,45.60
2018-01-18T16:45:09.223Z,46.90
2018-01-18T16:47:38.285Z,46.70
2018-01-18T16:50:06.889Z,47.40
2018-01-18T16:52:35.388Z,46.70
2018-01-18T16:55:04.487Z,46.80
2018-01-18T16:57:34.296Z,46.80
2018-01-18T17:00:02.608Z,46.60
2018-01-18T17:02:30.937Z,47.20
2018-01-18T17:04:59.257Z,47.60
2018-01-18T17:07:27.544Z,47.20
2018-01-18T17:09:55.982Z,47.30
2018-01-18T17:12:24.272Z,47.00
2018-01-18T17:14:52.607Z,47.00
2018-01-18T17:17:20.916Z,47.20
2018-01-18T17:19:50.257Z,47.00
2018-01-18T17:22:19.633Z,48.10
2018-01-18T17:24:48.024Z,47.50
2018-01-18T17:27:16.535Z,48.30
2018-01-18T17:29:44.816Z,48.20
2018-01-18T17:32:13.194Z,48.50
2018-01-18T17:34:41.536Z,48.90
2018-01-18T17:37:09.872Z,48.50
2018-01-18T17:39:38.165Z,48.60
2018-01-18T17:42:07.855Z,49.00
2018-01-18T17:44:36.163Z,49.00
2018-01-18T17:47:04.649Z,49.20
2018-01-18T17:49:33.117Z,49.70
2018-01-18T17:52:02.284Z,49.50
2018-01-18T17:54:31.083Z,49.40
2018-01-18T17:56:59.379Z,49.80
2018-01-18T17:59:27.703Z,50.40
2018-01-18T18:01:56.096Z,50.60
2018-01-18T18:04:24.376Z,50.80
2018-01-18T18:06:52.704Z,51.10
2018-01-18T18:09:21.649Z,50.70
2018-01-18T18:11:49.985Z,53.60
2018-01-18T18:14:18.696Z,50.90
2018-01-18T18:16:47.008Z,51.10
2018-01-18T18:19:15.301Z,51.10
2018-01-18T18:21:44.142Z,51.20
2018-01-18T18:24:12.452Z,51.30
2018-01-18T18:26:41.516Z,51.40
2018-01-18T18:29:11.728Z,51.30
2018-01-18T18:31:40.259Z,51.30
2018-01-18T18:34:08.578Z,51.40
2018-01-18T18:36:36.881Z,51.80
2018-01-18T18:39:05.245Z,51.90
2018-01-18T18:41:33.543Z,51.80
2018-01-18T18:44:02.596Z,52.40
2018-01-18T18:46:30.916Z,52.40
2018-01-18T18:48:59.627Z,52.70
2018-01-18T18:51:28.725Z,52.70
2018-01-18T18:53:57.444Z,53.20
2018-01-18T18:56:25.772Z,53.40
2018-01-18T18:58:54.077Z,53.30
2018-01-18T19:01:23.260Z,53.70
2018-01-18T19:03:51.591Z,53.70
2018-01-18T19:06:19.873Z,53.70
2018-01-18T19:08:48.200Z,54.40
2018-01-18T19:11:16.538Z,54.60
2018-01-18T19:13:44.900Z,54.40
2018-01-18T19:16:13.193Z,54.50
2018-01-18T19:18:41.711Z,54.70
2018-01-18T19:21:10.857Z,55.10
2018-01-18T19:23:39.152Z,55.00
2018-01-18T19:26:07.483Z,54.70
2018-01-18T19:28:35.856Z,54.90
2018-01-18T19:31:04.266Z,54.80
2018-01-18T19:33:33.355Z,56.00
2018-01-18T19:36:02.443Z,56.50
2018-01-18T19:38:31.493Z,56.90
2018-01-18T19:40:59.820Z,57.00
2018-01-18T19:43:28.116Z,57.20
2018-01-18T19:45:58.127Z,58.20
2018-01-18T19:48:27.200Z,58.50
2018-01-18T19:50:56.350Z,59.10
2018-01-18T19:53:24.685Z,59.10
2018-01-18T19:55:53.736Z,60.60
2018-01-18T19:58:22.840Z,61.00
2018-01-18T20:00:51.330Z,61.00
2018-01-18T20:03:19.805Z,61.00
2018-01-18T20:05:48.117Z,60.80
2018-01-18T20:08:16.440Z,61.70
2018-01-18T20:10:44.780Z,61.30
2018-01-18T20:13:13.072Z,62.00
2018-01-18T20:15:41.429Z,62.70
2018-01-18T20:18:10.698Z,62.60
2018-01-18T20:20:39.861Z,63.30
2018-01-18T20:23:08.145Z,63.30
2018-01-18T20:25:37.437Z,63.00
2018-01-18T20:28:06.591Z,63.30
2018-01-18T20:30:35.673Z,62.30
2018-01-18T20:33:04.757Z,61.70
2018-01-18T20:35:34.660Z,61.70
2018-01-18T20:38:02.978Z,61.40
2018-01-18T20:40:31.299Z,61.70
2018-01-18T20:42:59.631Z,62.80
2018-01-18T20:45:29.010Z,63.70
2018-01-18T20:47:57.504Z,62.90
2018-01-18T20:50:25.793Z,63.20
2018-01-18T20:52:57.368Z,62.90
2018-01-18T20:55:26.346Z,63.00
2018-01-18T20:57:54.693Z,62.80
2018-01-18T21:00:23.786Z,63.60
2018-01-18T21:02:52.140Z,63.60
2018-01-18T21:05:20.665Z,63.20
2018-01-18T21:07:48.951Z,62.90
2018-01-18T21:10:17.264Z,62.50
2018-01-18T21:12:45.557Z,62.10
2018-01-18T21:15:13.876Z,62.00
2018-01-18T21:17:43.200Z,61.70
2018-01-18T21:20:12.373Z,61.60
2018-01-18T21:22:41.432Z,61.50
2018-01-18T21:25:09.795Z,61.80
2018-01-18T21:27:38.089Z,60.70
2018-01-18T21:30:06.579Z,60.40
2018-01-18T21:32:34.937Z,59.90
2018-01-18T21:35:03.218Z,60.00
2018-01-18T21:37:31.530Z,59.50
2018-01-18T21:39:59.872Z,59.70
2018-01-18T21:42:28.176Z,60.50
2018-01-18T21:44:56.496Z,59.90
2018-01-18T21:47:24.824Z,60.70
2018-01-18T21:49:53.124Z,61.70
2018-01-18T21:52:22.276Z,62.30
2018-01-18T21:54:50.562Z,62.40
2018-01-18T21:57:18.906Z,62.50
2018-01-18T21:59:48.532Z,63.10
2018-01-18T22:02:16.812Z,63.10
2018-01-18T22:04:45.130Z,62.70
2018-01-18T22:07:13.453Z,64.10
2018-01-18T22:09:42.513Z,63.90
2018-01-18T22:12:10.833Z,63.90
2018-01-18T22:14:39.130Z,64.40
2018-01-18T22:17:08.190Z,63.50
2018-01-18T22:19:36.509Z,63.50
2018-01-18T22:22:04.845Z,64.70
2018-01-18T22:24:33.880Z,64.80
2018-01-18T22:27:02.212Z,65.20
2018-01-18T22:29:30.492Z,66.00
2018-01-18T22:31:58.802Z,65.10
2018-01-18T22:34:27.144Z,65.20
2018-01-18T22:36:55.464Z,65.30
2018-01-18T22:39:23.782Z,65.80
2018-01-18T22:41:52.065Z,64.90
2018-01-18T22:44:20.455Z,64.20
2018-01-18T22:46:50.221Z,64.40
2018-01-18T22:49:18.573Z,64.40
2018-01-18T22:51:46.909Z,65.50
2018-01-18T22:54:15.220Z,65.60
2018-01-18T22:56:43.505Z,66.40
2018-01-18T22:59:11.847Z,67.50
2018-01-18T23:01:40.171Z,68.00
2018-01-18T23:04:09.292Z,67.70
2018-01-18T23:06:38.010Z,67.70
2018-01-18T23:09:06.606Z,67.90
2018-01-18T23:11:35.269Z,68.10
2018-01-18T23:14:03.609Z,70.00
2018-01-18T23:16:31.906Z,70.80
2018-01-18T23:19:00.213Z,72.00
2018-01-18T23:21:28.529Z,73.40
2018-01-18T23:23:56.857Z,73.70
2018-01-18T23:26:25.137Z,75.60
2018-01-18T23:28:54.325Z,77.30
2018-01-18T23:31:22.653Z,77.30
2018-01-18T23:33:51.728Z,77.10
2018-01-18T23:36:20.500Z,77.10
2018-01-18T23:38:48.810Z,78.40
2018-01-18T23:41:17.125Z,79.70
2018-01-18T23:43:45.454Z,81.30
2018-01-18T23:46:15.346Z,84.20
2018-01-18T23:48:44.755Z,87.30
2018-01-18T23:51:13.080Z,87.40
2018-01-18T23:53:41.373Z,89.80
2018-01-18T23:56:09.691Z,90.70
2018-01-18T23:58:38.010Z,91.20
